Aeroporto :
LOGIN :

Iscrizione | Disclaimer

   EN    FR    IT 

 










Sommario :    VFR   VFR Marginale   IFR   IFR Intensivo   IFR Molto Intensivo
Visibilità : 
Base nubi : 
>= 8 km
>= 3000ft
5 / 8 km
1000 / 3000 ft
1500m / 5 km
500 / 1000 ft
800 / 1500m
200 / 500 ft
< 800m
< 200 ft
Simboli :   Temporali  Nebbia  Neve Forte  Precipitazioni Forti  Vento > 20 kt
SIGMETs :   Varie  Temporali  Ghiacco  Turbolenza  Onda orograficha  Ceneri Vulcaniche






- Altitudine del aeroporto : 359 ft
- Codice IATA : BVA


LFOB - Beauvais

ULTIMO METAR :
  • 281830Z AUTO 04011KT CAVOK 20/05 Q1027 NOSIG

METARs OBSOLETI :
  • 281800Z AUTO 05013KT CAVOK 21/04 Q1027 NOSIG
  • 281730Z AUTO 05013KT CAVOK 21/04 Q1028 NOSIG
  • 281700Z AUTO 05014KT 020V080 CAVOK 22/04 Q1028 NOSIG
  • 281630Z AUTO 05013KT CAVOK 22/05 Q1028 NOSIG
  • 281600Z AUTO 06015KT CAVOK 22/04 Q1028 NOSIG

TAF TAF LFOB
Valido dal 28 a 18 ore il 29 a 18 ore UTC


281700Z 2818/2918 06012KT CAVOK
ATIS : +33 3 44 11 49 28



MetMap, La meteo Aeronautica in un colpo d'occhio ! - Copyright ORBIFLY Dicembre 2007 - Disclaimer

ORBIFLY MET'MAP TEAM :

Programmazione e sviluppo : Alexandra Zaïnal
Concezione : Baudouin d'Aumeries
Aiuto per la programmazione : Marc-Olivier Méhu
Supporto tecnico e logistico : Manuel Goepfert
Aiuto per la traduzione : Arnaldo La Scala

Contatto : metmap@orbifly.com




FONTI E CREDITI :

   NOAA